createdAt,value
2023-05-23T00:01:45.613Z,99678.78
2023-05-23T00:04:48.329Z,99701.41
2023-05-23T00:07:50.199Z,99662.81
2023-05-23T00:10:53.453Z,99680.00
2023-05-23T00:13:57.603Z,99691.22
2023-05-23T00:17:00.535Z,99696.56
2023-05-23T00:20:03.027Z,99684.59
2023-05-23T00:23:08.122Z,99684.22
2023-05-23T00:26:11.503Z,99683.41
2023-05-23T00:29:16.917Z,99680.00
2023-05-23T00:32:19.920Z,99685.50
2023-05-23T00:35:21.950Z,99690.47
2023-05-23T00:38:23.734Z,99662.41
2023-05-23T00:41:28.604Z,99688.81
2023-05-23T00:44:30.781Z,99689.00
2023-05-23T00:47:32.937Z,99687.59
2023-05-23T00:50:36.239Z,99685.94
2023-05-23T00:53:38.913Z,99694.28
2023-05-23T00:56:44.001Z,99687.19
2023-05-23T00:59:48.085Z,99690.31
2023-05-23T01:02:53.649Z,99687.00
2023-05-23T01:05:56.068Z,99681.66
2023-05-23T01:09:01.958Z,99685.81
2023-05-23T01:12:17.314Z,99677.09
2023-05-23T01:15:21.779Z,99669.63
2023-05-23T01:18:30.663Z,99676.25
2023-05-23T01:21:34.255Z,99676.25
2023-05-23T01:24:40.932Z,99667.88
2023-05-23T01:27:53.207Z,99678.56
2023-05-23T01:30:58.710Z,99679.38
2023-05-23T01:34:03.543Z,99678.94
2023-05-23T01:37:09.836Z,99670.47
2023-05-23T01:40:12.744Z,99673.31
2023-05-23T01:43:16.179Z,99674.13
2023-05-23T01:46:22.702Z,99658.22
2023-05-23T01:49:24.979Z,99589.91
2023-05-23T01:52:26.944Z,99666.13
2023-05-23T01:55:29.382Z,99669.28
2023-05-23T01:58:32.760Z,99654.63
2023-05-23T02:01:35.024Z,99652.34
2023-05-23T02:04:37.680Z,99652.72
2023-05-23T02:07:39.789Z,99637.72
2023-05-23T02:10:41.667Z,99647.66
2023-05-23T02:13:45.000Z,99646.09
2023-05-23T02:16:52.798Z,99583.31
2023-05-23T02:19:55.600Z,99650.13
2023-05-23T02:22:57.474Z,99625.16
2023-05-23T02:25:59.315Z,99654.38
2023-05-23T02:29:03.092Z,99632.47
2023-05-23T02:32:05.554Z,99652.78
2023-05-23T02:35:08.478Z,99653.91
2023-05-23T02:38:10.509Z,99573.88
2023-05-23T02:41:12.733Z,99610.94
2023-05-23T02:44:19.683Z,99645.53
2023-05-23T02:47:21.570Z,99644.69
2023-05-23T02:50:23.805Z,99657.19
2023-05-23T02:53:28.119Z,99647.91
2023-05-23T02:56:29.955Z,99659.88
2023-05-23T02:59:34.082Z,99641.47
2023-05-23T03:02:36.039Z,99648.38
2023-05-23T03:05:38.891Z,99652.06
2023-05-23T03:08:41.771Z,99648.75
2023-05-23T03:11:43.861Z,99649.56
2023-05-23T03:14:47.096Z,99653.25
2023-05-23T03:17:49.073Z,99653.63
2023-05-23T03:20:51.003Z,99646.63
2023-05-23T03:23:53.501Z,99663.53
2023-05-23T03:26:55.920Z,99647.56
2023-05-23T03:29:59.237Z,99652.06
2023-05-23T03:33:02.161Z,99646.63
2023-05-23T03:36:04.415Z,99653.16
2023-05-23T03:39:06.490Z,99645.47
2023-05-23T03:42:08.539Z,99649.22
2023-05-23T03:45:12.478Z,99646.47
2023-05-23T03:48:14.431Z,99651.13
2023-05-23T03:51:16.418Z,99650.22
2023-05-23T03:54:18.455Z,99649.91
2023-05-23T03:57:20.422Z,99639.38
2023-05-23T04:00:23.854Z,99650.09
2023-05-23T04:03:27.489Z,99644.13
2023-05-23T04:06:31.413Z,99649.44
2023-05-23T04:09:33.325Z,99653.88
2023-05-23T04:12:35.680Z,99654.31
2023-05-23T04:15:41.433Z,99656.88
2023-05-23T04:18:47.576Z,99647.94
2023-05-23T04:21:49.739Z,99650.25
2023-05-23T04:24:51.631Z,99655.75
2023-05-23T04:27:57.525Z,99654.53
2023-05-23T04:31:02.863Z,99657.81
2023-05-23T04:34:04.858Z,99650.31
2023-05-23T04:37:07.299Z,99652.72
2023-05-23T04:40:09.892Z,99661.53
2023-05-23T04:43:14.436Z,99662.66
2023-05-23T04:46:22.226Z,99664.81
2023-05-23T04:49:24.142Z,99658.63
2023-05-23T04:52:27.674Z,99652.03
2023-05-23T04:55:29.811Z,99653.00
2023-05-23T04:58:32.256Z,99650.53
2023-05-23T05:01:35.591Z,99652.88
2023-05-23T05:04:38.252Z,99650.03
2023-05-23T05:07:40.532Z,99643.06
2023-05-23T05:10:43.285Z,99637.34
2023-05-23T05:13:45.149Z,99641.38
2023-05-23T05:16:50.320Z,99625.38
2023-05-23T05:19:53.124Z,99634.75
2023-05-23T05:22:58.397Z,99635.63
2023-05-23T05:26:01.119Z,99629.44
2023-05-23T05:29:03.098Z,99644.06
2023-05-23T05:32:09.172Z,99633.75
2023-05-23T05:35:14.074Z,99650.47
2023-05-23T05:38:16.150Z,99628.19
2023-05-23T05:41:18.009Z,99629.63
2023-05-23T05:44:20.064Z,99633.97
2023-05-23T05:47:23.267Z,99639.53
2023-05-23T05:50:26.101Z,99655.59
2023-05-23T05:53:27.933Z,99649.56
2023-05-23T05:56:29.922Z,99619.63
2023-05-23T05:59:32.606Z,99638.56
2023-05-23T06:02:36.795Z,99571.00
2023-05-23T06:05:39.774Z,99569.66
2023-05-23T06:08:42.817Z,99581.38
2023-05-23T06:11:44.696Z,99551.50
2023-05-23T06:14:46.521Z,99567.81
2023-05-23T06:17:51.541Z,99570.00
2023-05-23T06:20:53.442Z,99589.56
2023-05-23T06:23:56.028Z,99565.47
2023-05-23T06:26:57.824Z,99586.00
2023-05-23T06:29:59.657Z,99577.13
2023-05-23T06:33:03.475Z,99642.72
2023-05-23T06:36:05.561Z,99642.75
2023-05-23T06:39:10.052Z,99640.91
2023-05-23T06:42:11.967Z,99641.47
2023-05-23T06:45:16.372Z,99645.88
2023-05-23T06:48:19.937Z,99641.38
2023-05-23T06:51:21.957Z,99639.31
2023-05-23T06:54:23.900Z,99632.63
2023-05-23T06:57:25.898Z,99602.34
2023-05-23T07:00:31.634Z,99617.47
2023-05-23T07:03:38.530Z,99609.09
2023-05-23T07:06:40.615Z,99608.16
2023-05-23T07:09:42.990Z,99590.00
2023-05-23T07:12:44.869Z,99597.19
2023-05-23T07:15:46.708Z,99571.75
2023-05-23T07:18:49.915Z,99590.19
2023-05-23T07:21:51.819Z,99584.44
2023-05-23T07:24:53.891Z,99581.78
2023-05-23T07:27:56.089Z,99585.06
2023-05-23T07:30:59.104Z,99579.00
2023-05-23T07:34:02.769Z,99586.00
2023-05-23T07:37:04.976Z,99587.25
2023-05-23T07:40:09.570Z,99597.75
2023-05-23T07:43:11.428Z,99598.75
2023-05-23T07:46:16.805Z,99591.03
2023-05-23T07:49:20.137Z,99590.22
2023-05-23T07:52:22.800Z,99584.59
2023-05-23T07:55:24.668Z,99590.22
2023-05-23T07:58:26.658Z,99581.06
2023-05-23T08:01:28.559Z,99568.63
2023-05-23T08:04:34.633Z,99574.84
2023-05-23T08:07:36.563Z,99572.09
2023-05-23T08:10:40.217Z,99574.84
2023-05-23T08:13:42.774Z,99575.63
2023-05-23T08:16:44.720Z,99574.72
2023-05-23T08:19:48.132Z,99575.91
2023-05-23T08:22:49.950Z,99580.97
2023-05-23T08:25:52.746Z,99555.41
2023-05-23T08:28:54.699Z,99568.13
2023-05-23T08:31:56.720Z,99571.66
2023-05-23T08:35:00.106Z,99574.63
2023-05-23T08:38:02.272Z,99565.53
2023-05-23T08:41:12.959Z,99566.25
2023-05-23T08:44:15.958Z,99573.09
2023-05-23T08:47:19.951Z,99568.81
2023-05-23T08:50:25.241Z,99564.88
2023-05-23T08:53:29.146Z,99553.22
2023-05-23T08:56:31.717Z,99568.22
2023-05-23T08:59:35.355Z,99556.31
2023-05-23T09:02:38.134Z,99558.47
2023-05-23T09:05:42.385Z,99552.78
2023-05-23T09:08:46.262Z,99557.22
2023-05-23T09:11:48.700Z,99553.47
2023-05-23T09:14:50.886Z,99560.59
2023-05-23T09:17:53.876Z,99564.78
2023-05-23T09:20:57.715Z,99555.25
2023-05-23T09:24:00.973Z,99567.22
2023-05-23T09:27:03.501Z,99557.72
2023-05-23T09:30:06.886Z,99557.16
2023-05-23T09:33:09.652Z,99550.09
2023-05-23T09:36:12.974Z,99551.03
2023-05-23T09:39:14.965Z,99546.63
2023-05-23T09:42:22.202Z,99549.44
2023-05-23T09:45:30.302Z,99551.31
2023-05-23T09:48:33.545Z,99552.53
2023-05-23T09:51:37.672Z,99547.38
2023-05-23T09:54:39.778Z,99559.75
2023-05-23T09:57:44.205Z,99534.44
2023-05-23T10:00:48.821Z,99522.75
2023-05-23T10:03:54.753Z,99551.94
2023-05-23T10:07:05.374Z,99545.78
2023-05-23T10:10:10.659Z,99554.34
2023-05-23T10:13:13.568Z,99551.84
2023-05-23T10:16:21.509Z,99530.63
2023-05-23T10:19:28.393Z,99542.63
2023-05-23T10:22:33.039Z,99550.25
2023-05-23T10:25:37.249Z,99543.94
2023-05-23T10:28:40.905Z,99549.53
2023-05-23T10:31:44.260Z,99516.72
2023-05-23T10:34:56.575Z,99526.47
2023-05-23T10:38:17.714Z,99520.81
2023-05-23T10:41:27.081Z,99529.63
2023-05-23T10:44:31.219Z,99520.84
2023-05-23T10:47:34.322Z,99520.50
2023-05-23T10:50:41.731Z,99516.91
2023-05-23T10:53:47.008Z,99520.31
2023-05-23T10:57:03.104Z,99517.84
2023-05-23T11:00:12.178Z,99511.34
2023-05-23T11:03:14.281Z,99499.59
2023-05-23T11:06:30.085Z,99493.81
2023-05-23T11:09:33.363Z,99501.41
2023-05-23T11:12:37.862Z,99497.91
2023-05-23T11:15:43.674Z,99460.84
2023-05-23T11:18:46.617Z,99483.09
2023-05-23T11:21:50.869Z,99479.66
2023-05-23T11:24:55.220Z,99479.03
2023-05-23T11:27:57.225Z,99469.56
2023-05-23T11:30:59.332Z,99473.81
2023-05-23T11:34:01.720Z,99471.81
2023-05-23T11:37:03.981Z,99471.94
2023-05-23T11:40:32.850Z,99477.66
2023-05-23T11:43:34.827Z,99467.34
2023-05-23T11:46:37.306Z,99458.28
2023-05-23T11:49:40.459Z,99454.78
2023-05-23T11:52:42.628Z,99445.94
2023-05-23T11:55:54.465Z,99450.16
2023-05-23T11:58:57.593Z,99427.19
2023-05-23T12:02:02.762Z,99397.59
2023-05-23T12:05:08.334Z,99427.84
2023-05-23T12:08:12.274Z,99427.84
2023-05-23T12:11:15.972Z,99415.88
2023-05-23T12:14:18.546Z,99409.09
2023-05-23T12:17:20.599Z,99396.31
2023-05-23T12:20:22.961Z,99410.47
2023-05-23T12:23:25.519Z,99402.56
2023-05-23T12:26:29.531Z,99391.13
2023-05-23T12:29:34.833Z,99400.94
2023-05-23T12:32:40.674Z,99391.56
2023-05-23T12:35:45.752Z,99380.94
2023-05-23T12:38:47.640Z,99383.13
2023-05-23T12:41:51.462Z,99389.09
2023-05-23T12:44:54.157Z,99380.13
2023-05-23T12:47:56.214Z,99382.41
2023-05-23T12:50:58.201Z,99360.63
2023-05-23T12:54:00.231Z,99362.94
2023-05-23T12:57:03.719Z,99367.75
2023-05-23T13:00:07.168Z,99367.19
2023-05-23T13:03:09.706Z,99350.59
2023-05-23T13:06:12.075Z,99345.03
2023-05-23T13:09:13.936Z,99361.47
2023-05-23T13:12:17.570Z,99338.66
2023-05-23T13:15:19.546Z,99346.91
2023-05-23T13:18:21.450Z,99333.63
2023-05-23T13:21:24.077Z,99350.13
2023-05-23T13:24:26.091Z,99350.88
2023-05-23T13:27:29.603Z,99352.22
2023-05-23T13:30:31.765Z,99349.78
2023-05-23T13:33:33.735Z,99351.69
2023-05-23T13:36:36.194Z,99346.41
2023-05-23T13:39:38.063Z,99337.78
2023-05-23T13:42:41.396Z,99338.16
2023-05-23T13:45:43.274Z,99344.78
2023-05-23T13:48:45.100Z,99326.00
2023-05-23T13:51:48.286Z,99339.81
2023-05-23T13:54:50.284Z,99349.78
2023-05-23T13:57:54.382Z,99330.53
2023-05-23T14:00:56.246Z,99330.28
2023-05-23T14:03:58.930Z,99329.78
2023-05-23T14:07:00.787Z,99324.41
2023-05-23T14:10:03.081Z,99314.09
2023-05-23T14:13:06.387Z,99322.31
2023-05-23T14:16:09.049Z,99309.00
2023-05-23T14:19:11.007Z,99315.66
2023-05-23T14:22:13.920Z,99308.44
2023-05-23T14:25:16.054Z,99294.06
2023-05-23T14:28:19.394Z,99304.03
2023-05-23T14:31:22.366Z,99308.16
2023-05-23T14:34:24.197Z,99317.16
2023-05-23T14:37:26.879Z,99317.13
2023-05-23T14:40:28.731Z,99317.94
2023-05-23T14:43:32.021Z,99314.44
2023-05-23T14:46:34.835Z,99315.78
2023-05-23T14:49:36.895Z,99317.41
2023-05-23T14:52:38.811Z,99309.81
2023-05-23T14:55:41.386Z,99309.00
2023-05-23T14:58:46.004Z,99312.00
2023-05-23T15:01:48.107Z,99316.13
2023-05-23T15:04:50.788Z,99328.06
2023-05-23T15:07:52.659Z,99307.13
2023-05-23T15:10:54.555Z,99317.47
2023-05-23T15:13:57.790Z,99333.75
2023-05-23T15:17:07.766Z,99330.53
2023-05-23T15:20:10.841Z,99305.75
2023-05-23T15:23:12.773Z,99315.50
2023-05-23T15:26:14.743Z,99326.38
2023-05-23T15:29:18.392Z,99326.06
2023-05-23T15:32:20.434Z,99325.44
2023-05-23T15:35:22.926Z,99324.56
2023-05-23T15:38:24.800Z,99336.66
2023-05-23T15:41:26.732Z,99333.63
2023-05-23T15:44:30.170Z,99336.69
2023-05-23T15:47:32.807Z,99319.41
2023-05-23T15:50:34.750Z,99304.56
2023-05-23T15:53:47.904Z,99308.13
2023-05-23T15:56:58.523Z,99319.53
2023-05-23T16:00:02.220Z,99321.22
2023-05-23T16:03:04.299Z,99315.94
2023-05-23T16:06:06.748Z,99319.94
2023-05-23T16:09:08.949Z,99310.84
2023-05-23T16:12:10.856Z,99307.84
2023-05-23T16:15:14.318Z,99314.28
2023-05-23T16:18:16.238Z,99313.81
2023-05-23T16:21:20.770Z,99307.00
2023-05-23T16:24:24.422Z,99315.00
2023-05-23T16:27:26.306Z,99312.63
2023-05-23T16:30:29.563Z,99326.78
2023-05-23T16:33:31.783Z,99328.63
2023-05-23T16:36:33.711Z,99297.22
2023-05-23T16:39:35.606Z,99330.84
2023-05-23T16:42:37.495Z,99336.09
2023-05-23T16:45:42.118Z,99347.91
2023-05-23T16:48:44.620Z,99353.13
2023-05-23T16:51:48.562Z,99349.84
2023-05-23T16:54:50.809Z,99329.63
2023-05-23T16:57:53.305Z,99334.47
2023-05-23T17:00:57.017Z,99353.38
2023-05-23T17:03:59.028Z,99385.06
2023-05-23T17:07:01.711Z,99437.22
2023-05-23T17:10:03.691Z,99429.22
2023-05-23T17:13:06.469Z,99470.09
2023-05-23T17:16:09.897Z,99448.13
2023-05-23T17:19:11.797Z,99492.56
2023-05-23T17:22:14.544Z,99474.25
2023-05-23T17:25:16.469Z,99474.59
2023-05-23T17:28:18.454Z,99493.44
2023-05-23T17:31:21.787Z,99482.41
2023-05-23T17:34:23.662Z,99506.59
2023-05-23T17:37:26.557Z,99483.88
2023-05-23T17:40:28.509Z,99492.81
2023-05-23T17:43:30.628Z,99490.94
2023-05-23T17:46:34.295Z,99478.66
2023-05-23T17:49:37.926Z,99490.88
2023-05-23T17:52:40.579Z,99509.56
2023-05-23T17:55:42.416Z,99487.69
2023-05-23T17:58:44.585Z,99492.94
2023-05-23T18:01:48.028Z,99492.34
2023-05-23T18:04:50.473Z,99503.13
2023-05-23T18:07:52.716Z,99502.56
2023-05-23T18:10:54.531Z,99513.91
2023-05-23T18:13:56.505Z,99526.50
2023-05-23T18:16:59.855Z,99519.50
2023-05-23T18:20:02.261Z,99522.19
2023-05-23T18:23:04.738Z,99498.94
2023-05-23T18:26:06.653Z,99484.72
2023-05-23T18:29:08.600Z,99516.25
2023-05-23T18:32:14.547Z,99499.59
2023-05-23T18:35:16.540Z,99488.25
2023-05-23T18:38:19.309Z,99504.69
2023-05-23T18:41:22.381Z,99509.00
2023-05-23T18:44:24.193Z,99499.66
2023-05-23T18:47:27.722Z,99521.69
2023-05-23T18:50:29.860Z,99518.75
2023-05-23T18:53:32.578Z,99511.69
2023-05-23T18:56:34.571Z,99544.63
2023-05-23T18:59:36.837Z,99543.25
2023-05-23T19:02:44.285Z,99566.81
2023-05-23T19:05:46.457Z,99579.56
2023-05-23T19:08:49.224Z,99591.78
2023-05-23T19:11:51.055Z,99598.28
2023-05-23T19:14:52.980Z,99578.34
2023-05-23T19:17:56.270Z,99580.34
2023-05-23T19:20:58.248Z,99570.13
2023-05-23T19:24:00.225Z,99570.53
2023-05-23T19:27:02.452Z,99600.63
2023-05-23T19:30:04.991Z,99591.94
2023-05-23T19:33:08.701Z,99607.81
2023-05-23T19:36:10.609Z,99599.88
2023-05-23T19:39:13.074Z,99605.91
2023-05-23T19:42:14.980Z,99579.63
2023-05-23T19:45:17.466Z,99585.09
2023-05-23T19:48:20.752Z,99598.97
2023-05-23T19:51:23.213Z,99567.00
2023-05-23T19:54:25.217Z,99598.25
2023-05-23T19:57:27.050Z,99597.56
2023-05-23T20:00:29.025Z,99572.84
2023-05-23T20:03:32.265Z,99601.03
2023-05-23T20:06:35.243Z,99588.31
2023-05-23T20:09:37.656Z,99605.13
2023-05-23T20:12:40.345Z,99607.97
2023-05-23T20:15:42.612Z,99610.72
2023-05-23T20:18:45.874Z,99610.72
2023-05-23T20:21:47.764Z,99598.34
2023-05-23T20:24:50.009Z,99618.28
2023-05-23T20:27:51.905Z,99612.25
2023-05-23T20:30:53.806Z,99616.97
2023-05-23T20:33:57.106Z,99626.03
2023-05-23T20:36:59.027Z,99615.75
2023-05-23T20:40:00.852Z,99619.03
2023-05-23T20:43:05.166Z,99612.66
2023-05-23T20:46:09.344Z,99608.31
2023-05-23T20:49:14.324Z,99606.25
2023-05-23T20:52:16.401Z,99593.44
2023-05-23T20:55:18.967Z,99616.56
2023-05-23T20:58:21.733Z,99626.63
2023-05-23T21:01:26.419Z,99624.19
2023-05-23T21:04:29.736Z,99614.09
2023-05-23T21:07:32.306Z,99612.66
2023-05-23T21:10:34.378Z,99622.47
2023-05-23T21:13:39.786Z,99634.25
2023-05-23T21:16:41.984Z,99631.94
2023-05-23T21:19:45.281Z,99634.19
2023-05-23T21:22:48.193Z,99637.25
2023-05-23T21:25:50.072Z,99638.50
2023-05-23T21:28:51.930Z,99647.75
2023-05-23T21:31:55.086Z,99652.28
2023-05-23T21:34:58.602Z,99659.69
2023-05-23T21:38:00.564Z,99671.22
2023-05-23T21:41:02.363Z,99667.13
2023-05-23T21:44:04.305Z,99665.84
2023-05-23T21:47:06.334Z,99675.47
2023-05-23T21:50:11.381Z,99679.16
2023-05-23T21:53:13.313Z,99684.72
2023-05-23T21:56:15.164Z,99682.09
2023-05-23T21:59:17.860Z,99695.97
2023-05-23T22:02:19.719Z,99678.78
2023-05-23T22:05:23.249Z,99686.72
2023-05-23T22:08:25.019Z,99682.75
2023-05-23T22:11:33.960Z,99701.00
2023-05-23T22:14:36.211Z,99699.91
2023-05-23T22:17:38.232Z,99704.88
2023-05-23T22:20:42.336Z,99708.53
2023-05-23T22:23:44.365Z,99700.03
2023-05-23T22:26:46.285Z,99702.91
2023-05-23T22:29:48.821Z,99692.78
2023-05-23T22:32:51.002Z,99674.09
2023-05-23T22:35:54.349Z,99691.41
2023-05-23T22:38:56.582Z,99690.94
2023-05-23T22:41:58.768Z,99682.75
2023-05-23T22:45:00.755Z,99688.63
2023-05-23T22:48:02.732Z,99690.94
2023-05-23T22:51:08.033Z,99687.25
2023-05-23T22:54:10.043Z,99684.66
2023-05-23T22:57:12.638Z,99684.56
2023-05-23T23:00:15.028Z,99680.03
2023-05-23T23:03:17.811Z,99697.22
2023-05-23T23:06:21.137Z,99702.00
2023-05-23T23:09:23.143Z,99697.19
2023-05-23T23:12:25.614Z,99684.66
2023-05-23T23:15:30.234Z,99699.28
2023-05-23T23:18:32.684Z,99703.78
2023-05-23T23:21:36.216Z,99703.63
2023-05-23T23:24:38.160Z,99712.00
2023-05-23T23:27:40.597Z,99694.31
2023-05-23T23:30:43.916Z,99692.75
2023-05-23T23:33:46.829Z,99702.66
2023-05-23T23:36:50.137Z,99704.69
2023-05-23T23:39:52.673Z,99708.72
2023-05-23T23:42:54.592Z,99711.34
2023-05-23T23:45:56.403Z,99706.09
2023-05-23T23:48:58.560Z,99700.75
2023-05-23T23:52:01.864Z,99699.81
2023-05-23T23:55:05.295Z,99690.88
2023-05-23T23:58:07.183Z,99700.16
